Time;durP1;ratioP1;P1;durP2;ratioP2;P2;SDS_P1;SDS_P2;PMS_P1;PMS_P2;Temp;Humidity;BMP_temperature;BMP_pressure;BME280_temperature;BME280_humidity;BME280_pressure;Samples;Min_cycle;Max_cycle;Signal;HPM_P1;HPM_P2
2023/12/19 00:01:38;;;;;;;41.70;21.58;;;7.90;99.90;;;;;;5082929;28;20130;-66
2023/12/19 00:04:03;;;;;;;39.75;21.92;;;8.00;99.90;;;;;;5101317;28;20138;-66
2023/12/19 00:06:30;;;;;;;34.67;21.40;;;7.90;99.90;;;;;;5100784;28;20046;-66
2023/12/19 00:08:55;;;;;;;36.58;21.83;;;7.90;99.90;;;;;;5098460;28;20047;-66
2023/12/19 00:11:21;;;;;;;36.58;21.35;;;8.00;99.90;;;;;;5098324;28;20063;-66
2023/12/19 00:13:47;;;;;;;37.65;21.98;;;8.00;99.90;;;;;;5098275;28;20032;-66
2023/12/19 00:16:13;;;;;;;40.28;22.17;;;8.00;99.90;;;;;;5099349;28;20051;-65
2023/12/19 00:18:38;;;;;;;32.78;21.10;;;8.00;99.90;;;;;;5098816;28;20582;-66
2023/12/19 00:21:04;;;;;;;36.80;23.25;;;8.00;99.90;;;;;;5100817;28;20063;-65
2023/12/19 00:23:30;;;;;;;38.85;23.13;;;8.00;99.90;;;;;;5101076;28;20543;-65
2023/12/19 00:25:59;;;;;;;38.97;21.77;;;8.00;99.90;;;;;;5096932;28;20134;-66
2023/12/19 00:28:27;;;;;;;43.35;23.85;;;8.00;99.90;;;;;;5099811;28;20048;-66
2023/12/19 00:30:54;;;;;;;39.90;22.83;;;8.00;99.90;;;;;;5099831;28;20067;-66
2023/12/19 00:33:21;;;;;;;45.10;25.33;;;8.00;99.90;;;;;;5101069;28;20131;-66
2023/12/19 00:35:47;;;;;;;44.30;25.08;;;8.00;99.90;;;;;;5080617;28;20131;-66
2023/12/19 00:38:13;;;;;;;45.92;24.35;;;8.00;99.90;;;;;;5081881;28;20514;-66
2023/12/19 00:40:38;;;;;;;40.40;24.38;;;8.00;99.90;;;;;;5099759;28;20035;-66
2023/12/19 00:43:04;;;;;;;39.58;22.95;;;8.00;99.90;;;;;;5100955;28;20605;-66
2023/12/19 00:45:30;;;;;;;43.95;24.58;;;8.00;99.90;;;;;;5100788;28;20047;-65
2023/12/19 00:47:55;;;;;;;41.38;23.38;;;8.10;99.90;;;;;;5099299;28;20071;-67
2023/12/19 00:50:21;;;;;;;42.63;24.88;;;8.10;99.90;;;;;;5098088;28;20531;-68
2023/12/19 00:52:47;;;;;;;44.60;25.42;;;8.00;99.90;;;;;;5101736;28;20503;-67
2023/12/19 00:55:12;;;;;;;38.50;22.70;;;8.10;99.90;;;;;;5098839;28;20051;-65
2023/12/19 00:57:38;;;;;;;42.20;23.85;;;8.00;99.90;;;;;;5100041;28;20036;-66
2023/12/19 01:00:05;;;;;;;41.17;24.15;;;8.10;99.90;;;;;;5082310;28;20043;-65
2023/12/19 01:02:31;;;;;;;36.13;21.75;;;8.10;99.90;;;;;;5100591;28;20524;-65
2023/12/19 01:04:57;;;;;;;42.03;22.95;;;8.10;99.90;;;;;;5099447;28;20080;-66
2023/12/19 01:07:26;;;;;;;37.60;22.38;;;8.10;99.90;;;;;;5102159;28;20046;-66
2023/12/19 01:09:52;;;;;;;38.00;22.08;;;8.30;99.90;;;;;;5099883;28;20216;-65
2023/12/19 01:12:18;;;;;;;34.92;21.10;;;8.10;99.90;;;;;;5100354;28;20047;-65
2023/12/19 01:14:45;;;;;;;38.42;21.48;;;8.10;99.90;;;;;;5099809;28;20851;-66
2023/12/19 01:17:10;;;;;;;35.42;20.65;;;8.20;99.90;;;;;;5101154;28;20324;-65
2023/12/19 01:19:37;;;;;;;35.38;20.85;;;8.10;99.90;;;;;;5100560;28;20134;-66
2023/12/19 01:22:03;;;;;;;36.03;20.83;;;8.10;99.90;;;;;;5082779;28;20055;-65
2023/12/19 01:24:29;;;;;;;36.78;19.13;;;8.10;99.90;;;;;;5081338;28;20443;-66
2023/12/19 01:26:56;;;;;;;33.50;19.95;;;8.10;99.90;;;;;;5097013;28;20032;-66
2023/12/19 01:29:22;;;;;;;34.97;20.48;;;8.10;99.90;;;;;;5099314;28;20684;-66
2023/12/19 01:31:48;;;;;;;35.28;20.17;;;8.10;99.90;;;;;;5095669;28;20176;-67
2023/12/19 01:34:14;;;;;;;35.72;19.83;;;8.10;99.90;;;;;;5083793;28;20052;-66
2023/12/19 01:36:41;;;;;;;36.35;20.45;;;8.10;99.90;;;;;;5099741;28;20040;-66
2023/12/19 01:39:10;;;;;;;37.38;20.25;;;8.10;99.90;;;;;;5101444;28;20096;-66
2023/12/19 01:41:36;;;;;;;33.65;19.65;;;8.10;99.90;;;;;;5100402;28;20649;-67
2023/12/19 01:44:01;;;;;;;32.85;19.48;;;8.10;99.90;;;;;;5100517;28;20038;-67
2023/12/19 01:46:27;;;;;;;31.45;18.40;;;8.10;99.90;;;;;;5082460;28;20583;-66
2023/12/19 01:48:54;;;;;;;30.45;18.27;;;8.10;99.90;;;;;;5103733;28;20038;-67
2023/12/19 01:51:20;;;;;;;30.42;18.30;;;8.20;99.90;;;;;;5103479;28;20100;-67
2023/12/19 01:53:48;;;;;;;29.48;17.40;;;8.10;99.90;;;;;;5104775;28;20092;-67
2023/12/19 01:56:17;;;;;;;28.20;18.10;;;8.50;99.90;;;;;;5103066;28;20686;-66
2023/12/19 01:58:44;;;;;;;30.13;17.83;;;8.10;99.90;;;;;;5102471;28;20035;-66
2023/12/19 02:01:11;;;;;;;26.67;17.10;;;8.10;99.90;;;;;;5102906;28;20055;-66
2023/12/19 02:03:39;;;;;;;27.17;16.90;;;8.10;99.90;;;;;;5101654;28;20455;-66
2023/12/19 02:06:05;;;;;;;30.48;17.48;;;8.10;99.90;;;;;;5102529;28;20040;-67
2023/12/19 02:08:30;;;;;;;25.58;16.40;;;8.10;99.90;;;;;;5103088;28;20187;-66
2023/12/19 02:10:56;;;;;;;25.88;14.95;;;8.40;99.90;;;;;;5103513;28;20488;-66
2023/12/19 02:13:22;;;;;;;28.08;16.23;;;8.20;99.90;;;;;;5103786;28;20051;-65
2023/12/19 02:15:51;;;;;;;27.30;16.73;;;8.10;99.90;;;;;;5103001;28;20522;-65
2023/12/19 02:18:20;;;;;;;28.52;17.45;;;8.10;99.90;;;;;;5089283;28;20054;-66
2023/12/19 02:20:46;;;;;;;25.38;15.55;;;8.20;99.90;;;;;;5101306;28;20399;-67
2023/12/19 02:23:13;;;;;;;26.52;15.40;;;8.10;99.90;;;;;;5103296;28;20448;-66
2023/12/19 02:25:39;;;;;;;28.27;17.15;;;8.10;99.90;;;;;;5083016;28;20047;-65
2023/12/19 02:28:06;;;;;;;27.05;16.10;;;8.10;99.90;;;;;;5103412;28;20526;-65
2023/12/19 02:30:34;;;;;;;28.40;17.02;;;8.10;99.90;;;;;;5083584;28;20028;-65
2023/12/19 02:33:01;;;;;;;28.10;16.58;;;8.50;99.90;;;;;;5085310;27;20036;-65
2023/12/19 02:35:27;;;;;;;25.13;16.25;;;8.10;99.90;;;;;;5080353;28;20047;-65
2023/12/19 02:37:53;;;;;;;26.90;16.63;;;8.10;99.90;;;;;;5092703;27;20486;-65
2023/12/19 02:40:18;;;;;;;24.98;16.35;;;8.20;99.90;;;;;;5083477;28;20054;-65
2023/12/19 02:42:44;;;;;;;23.48;15.55;;;8.20;99.90;;;;;;5086631;28;20039;-66
2023/12/19 02:45:10;;;;;;;24.33;14.70;;;8.10;99.90;;;;;;5085095;28;20492;-66
2023/12/19 02:47:37;;;;;;;23.88;15.48;;;8.10;99.90;;;;;;5102984;28;20039;-67
2023/12/19 02:50:03;;;;;;;24.40;15.27;;;8.10;99.90;;;;;;5082853;28;20044;-66
2023/12/19 02:52:29;;;;;;;23.67;14.82;;;8.10;99.90;;;;;;5100898;28;20048;-66
2023/12/19 02:54:55;;;;;;;22.77;13.75;;;8.10;99.90;;;;;;5084368;28;20044;-66
2023/12/19 02:57:21;;;;;;;23.63;14.38;;;8.10;99.90;;;;;;5085110;28;20047;-65
2023/12/19 02:59:47;;;;;;;23.35;13.85;;;8.10;99.90;;;;;;5094176;28;20093;-66
2023/12/19 03:02:12;;;;;;;22.70;13.70;;;8.10;99.90;;;;;;5095930;28;20044;-66
2023/12/19 03:04:39;;;;;;;23.50;15.18;;;8.10;99.90;;;;;;5101709;28;20395;-67
2023/12/19 03:07:06;;;;;;;23.55;14.27;;;8.10;99.90;;;;;;5103107;28;20051;-66
2023/12/19 03:09:31;;;;;;;23.13;13.90;;;8.10;99.90;;;;;;5100191;28;20040;-66
2023/12/19 03:12:05;;;;;;;22.92;14.05;;;8.10;99.90;;;;;;5103757;28;20050;-66
2023/12/19 03:14:31;;;;;;;23.13;15.20;;;8.10;99.90;;;;;;5102960;28;20039;-66
2023/12/19 03:16:57;;;;;;;22.52;14.63;;;8.10;99.90;;;;;;5086037;28;20472;-66
2023/12/19 03:19:23;;;;;;;23.27;15.50;;;8.10;99.90;;;;;;5085781;28;20044;-66
2023/12/19 03:21:49;;;;;;;20.80;13.80;;;8.10;99.90;;;;;;5103191;28;20051;-66
2023/12/19 03:24:15;;;;;;;23.17;14.02;;;8.10;99.90;;;;;;5084370;28;20067;-66
2023/12/19 03:26:42;;;;;;;21.10;14.48;;;8.10;99.90;;;;;;5104791;27;20036;-66
2023/12/19 03:29:08;;;;;;;24.13;14.95;;;8.10;99.90;;;;;;5102009;28;20237;-66
2023/12/19 03:31:34;;;;;;;23.27;14.48;;;8.10;99.90;;;;;;5085338;28;20047;-66
2023/12/19 03:34:02;;;;;;;23.48;14.38;;;8.10;99.90;;;;;;5099925;28;20077;-66
2023/12/19 03:36:28;;;;;;;22.05;14.32;;;8.10;99.90;;;;;;5103601;28;20039;-65
2023/12/19 03:38:54;;;;;;;22.25;13.73;;;8.10;99.90;;;;;;5100882;28;20047;-66
2023/12/19 03:41:20;;;;;;;22.98;14.90;;;8.00;99.90;;;;;;5102352;28;20062;-66
2023/12/19 03:43:48;;;;;;;21.42;13.80;;;8.00;99.90;;;;;;5102413;28;20043;-66
2023/12/19 03:46:14;;;;;;;22.13;13.80;;;8.00;99.90;;;;;;5088450;28;21923;-66
2023/12/19 03:48:47;;;;;;;19.98;13.25;;;8.00;99.90;;;;;;5084308;28;20048;-65
2023/12/19 03:51:13;;;;;;;20.23;13.43;;;8.00;99.90;;;;;;5096931;28;20044;-65
2023/12/19 03:53:38;;;;;;;22.13;13.27;;;8.00;99.90;;;;;;5101473;28;20459;-65
2023/12/19 03:56:05;;;;;;;23.33;13.52;;;8.00;99.90;;;;;;5102469;27;20454;-65
2023/12/19 03:58:31;;;;;;;20.92;12.95;;;8.00;99.90;;;;;;5101612;28;20044;-66
2023/12/19 04:00:57;;;;;;;18.80;11.98;;;8.00;99.90;;;;;;5084066;28;20047;-66
2023/12/19 04:03:22;;;;;;;18.35;11.50;;;8.00;99.90;;;;;;5101374;28;20048;-66
2023/12/19 04:05:48;;;;;;;15.65;10.35;;;8.00;99.90;;;;;;5101715;28;20039;-65
2023/12/19 04:08:14;;;;;;;16.23;10.20;;;8.00;99.90;;;;;;5101618;28;20058;-67
2023/12/19 04:10:39;;;;;;;16.67;9.73;;;8.40;99.90;;;;;;5132086;27;20125;-65
2023/12/19 04:13:05;;;;;;;15.13;9.48;;;8.00;99.90;;;;;;5095915;28;20154;-66
2023/12/19 04:15:31;;;;;;;14.75;8.63;;;8.00;99.90;;;;;;5100403;28;20060;-66
2023/12/19 04:17:57;;;;;;;14.43;8.63;;;8.00;99.90;;;;;;5100125;28;20684;-66
2023/12/19 04:20:22;;;;;;;13.80;8.68;;;8.00;99.90;;;;;;5100873;28;20075;-66
2023/12/19 04:22:48;;;;;;;15.35;8.65;;;8.00;99.90;;;;;;5103556;28;20043;-67
2023/12/19 04:25:14;;;;;;;13.60;8.32;;;8.00;99.90;;;;;;5100230;28;20122;-67
2023/12/19 04:27:40;;;;;;;12.98;7.82;;;8.00;99.90;;;;;;5101261;27;20031;-66
2023/12/19 04:30:06;;;;;;;12.85;8.05;;;8.00;99.90;;;;;;5083908;28;20051;-66
2023/12/19 04:32:32;;;;;;;12.55;7.60;;;8.00;99.90;;;;;;5100004;28;20490;-67
2023/12/19 04:34:58;;;;;;;12.73;7.60;;;8.00;99.90;;;;;;5100856;28;20126;-66
2023/12/19 04:37:23;;;;;;;13.55;8.40;;;8.00;99.90;;;;;;5101323;28;20116;-66
2023/12/19 04:39:49;;;;;;;12.38;7.88;;;8.00;99.90;;;;;;5100889;28;20124;-66
2023/12/19 04:42:17;;;;;;;13.45;7.88;;;8.00;99.90;;;;;;5101324;28;20066;-66
2023/12/19 04:44:48;;;;;;;12.93;8.35;;;8.00;99.90;;;;;;5079541;28;20135;-65
2023/12/19 04:47:14;;;;;;;12.70;7.70;;;8.00;99.90;;;;;;5084191;28;20412;-66
2023/12/19 04:49:40;;;;;;;13.15;8.48;;;8.00;99.90;;;;;;5100588;28;20062;-66
2023/12/19 04:52:05;;;;;;;15.88;8.02;;;8.00;99.90;;;;;;5099068;28;20075;-66
2023/12/19 04:54:32;;;;;;;13.50;7.88;;;8.00;99.90;;;;;;5096478;28;20101;-66
2023/12/19 04:56:58;;;;;;;12.00;7.68;;;8.00;99.90;;;;;;5134801;27;20040;-66
2023/12/19 04:59:24;;;;;;;11.25;7.28;;;8.00;99.90;;;;;;5102838;28;20043;-66
2023/12/19 05:01:51;;;;;;;10.98;6.75;;;8.00;99.90;;;;;;5100609;28;20040;-66
2023/12/19 05:04:16;;;;;;;11.18;6.75;;;7.80;99.90;;;;;;5099580;28;20528;-66
2023/12/19 05:06:42;;;;;;;11.32;6.32;;;8.00;99.90;;;;;;5093919;28;20058;-66
2023/12/19 05:09:08;;;;;;;10.07;5.93;;;8.20;99.90;;;;;;5101932;28;20047;-66
2023/12/19 05:11:34;;;;;;;9.88;6.13;;;8.00;99.90;;;;;;5101358;28;20509;-65
2023/12/19 05:14:00;;;;;;;9.60;6.00;;;8.00;99.90;;;;;;5132036;27;20060;-66
2023/12/19 05:16:26;;;;;;;9.93;5.50;;;8.00;99.90;;;;;;5098346;28;20654;-66
2023/12/19 05:18:52;;;;;;;9.55;5.50;;;8.10;99.90;;;;;;5099387;28;20075;-66
2023/12/19 05:21:20;;;;;;;9.13;5.25;;;8.00;99.90;;;;;;5102383;28;20062;-66
2023/12/19 05:23:46;;;;;;;9.95;6.07;;;8.00;99.90;;;;;;5103664;28;20040;-66
2023/12/19 05:26:12;;;;;;;11.07;5.90;;;8.10;99.90;;;;;;5104641;28;20068;-66
2023/12/19 05:28:39;;;;;;;9.85;6.05;;;8.10;99.90;;;;;;5106437;27;20042;-65
2023/12/19 05:31:05;;;;;;;9.18;5.57;;;8.10;99.90;;;;;;5106732;28;20054;-65
2023/12/19 05:33:33;;;;;;;8.88;5.18;;;8.10;99.90;;;;;;5103937;28;20595;-66
2023/12/19 05:35:59;;;;;;;11.23;5.88;;;8.10;99.90;;;;;;5087970;28;20028;-65
2023/12/19 05:38:24;;;;;;;11.48;6.55;;;8.10;99.90;;;;;;5105794;28;20059;-66
2023/12/19 05:40:56;;;;;;;10.93;6.57;;;8.10;99.90;;;;;;5103574;28;20058;-65
2023/12/19 05:43:22;;;;;;;9.07;5.60;;;8.10;99.90;;;;;;5104346;28;20051;-66
2023/12/19 05:45:47;;;;;;;9.35;5.88;;;8.10;99.90;;;;;;5103329;28;20056;-66
2023/12/19 05:48:13;;;;;;;10.05;5.72;;;8.40;99.90;;;;;;5087954;28;20071;-66
2023/12/19 05:50:39;;;;;;;9.65;5.88;;;8.10;99.90;;;;;;5087828;28;20492;-66
2023/12/19 05:53:05;;;;;;;9.63;5.70;;;8.10;99.90;;;;;;5103163;28;20040;-66
2023/12/19 05:55:31;;;;;;;9.45;5.95;;;8.10;99.90;;;;;;5104314;28;20042;-65
2023/12/19 05:57:57;;;;;;;11.68;6.40;;;8.10;99.90;;;;;;5086584;28;20126;-65
2023/12/19 06:00:22;;;;;;;9.57;5.85;;;8.10;99.90;;;;;;5102599;28;20606;-66
2023/12/19 06:02:50;;;;;;;9.77;6.13;;;8.10;99.90;;;;;;5135660;27;20036;-66
2023/12/19 06:05:19;;;;;;;9.07;5.43;;;8.10;99.90;;;;;;5103902;28;20051;-65
2023/12/19 06:07:48;;;;;;;9.15;6.03;;;8.10;99.90;;;;;;5102121;28;20035;-65
2023/12/19 06:10:14;;;;;;;11.07;6.00;;;8.20;99.90;;;;;;5104691;28;20052;-66
2023/12/19 06:12:40;;;;;;;9.00;5.80;;;8.10;99.90;;;;;;5097867;28;20044;-65
2023/12/19 06:15:11;;;;;;;10.07;5.20;;;8.20;99.90;;;;;;5137284;27;20103;-66
2023/12/19 06:17:41;;;;;;;9.40;5.85;;;8.10;99.90;;;;;;5104217;28;20043;-66
2023/12/19 06:20:09;;;;;;;9.63;5.82;;;8.10;99.90;;;;;;5085931;28;20583;-65
2023/12/19 06:22:34;;;;;;;9.35;5.43;;;8.20;99.90;;;;;;5103429;28;20079;-66
2023/12/19 06:25:00;;;;;;;11.10;5.63;;;8.20;99.90;;;;;;5102417;28;20082;-67
2023/12/19 06:27:27;;;;;;;10.43;5.75;;;8.10;99.90;;;;;;5103208;28;20036;-65
2023/12/19 06:29:56;;;;;;;11.68;6.15;;;8.20;99.90;;;;;;5103614;28;20511;-66
2023/12/19 06:32:22;;;;;;;8.95;5.38;;;8.20;99.90;;;;;;5102262;28;20489;-66
2023/12/19 06:34:47;;;;;;;10.18;6.43;;;8.20;99.90;;;;;;5085120;28;20052;-65
2023/12/19 06:37:13;;;;;;;11.73;6.68;;;8.20;99.90;;;;;;5102810;28;20077;-65
2023/12/19 06:39:39;;;;;;;11.10;7.03;;;8.20;99.90;;;;;;5101628;28;20059;-65
2023/12/19 06:42:05;;;;;;;10.20;6.30;;;8.20;99.90;;;;;;5136196;27;20054;-65
2023/12/19 06:44:31;;;;;;;9.80;5.80;;;8.20;99.90;;;;;;5098705;28;20036;-65
2023/12/19 06:46:57;;;;;;;12.93;7.45;;;8.20;99.90;;;;;;5076697;28;20042;-66
2023/12/19 06:49:24;;;;;;;11.45;6.40;;;8.70;99.90;;;;;;5104976;27;21714;-66
2023/12/19 06:51:51;;;;;;;11.48;6.82;;;8.20;99.90;;;;;;5086973;28;20762;-65
2023/12/19 06:54:17;;;;;;;10.25;6.20;;;8.20;99.90;;;;;;5113215;27;20048;-65
2023/12/19 06:56:42;;;;;;;10.52;6.38;;;8.20;99.90;;;;;;5078182;27;20416;-66
2023/12/19 06:59:08;;;;;;;9.95;6.43;;;8.20;99.90;;;;;;5079321;28;20039;-65
2023/12/19 07:01:35;;;;;;;10.38;6.50;;;8.20;99.90;;;;;;5082079;28;20142;-66
2023/12/19 07:04:01;;;;;;;10.35;6.93;;;8.20;99.90;;;;;;5089590;28;20469;-66
2023/12/19 07:06:27;;;;;;;10.10;6.57;;;8.20;99.90;;;;;;5085527;28;20044;-66
2023/12/19 07:08:52;;;;;;;9.95;6.53;;;8.20;99.90;;;;;;5083468;28;20055;-66
2023/12/19 07:11:21;;;;;;;10.40;6.28;;;8.20;99.90;;;;;;5082130;27;20072;-66
2023/12/19 07:13:46;;;;;;;9.95;6.50;;;8.20;99.90;;;;;;5078639;28;20047;-67
2023/12/19 07:16:18;;;;;;;10.45;5.93;;;8.20;99.90;;;;;;5063458;28;20043;-66
2023/12/19 07:18:45;;;;;;;9.35;5.82;;;8.20;99.90;;;;;;5114817;27;20419;-66
2023/12/19 07:21:24;;;;;;;9.95;5.93;;;8.20;99.90;;;;;;5079820;28;20044;-66
2023/12/19 07:23:54;;;;;;;10.35;5.90;;;8.20;99.90;;;;;;5080745;28;20051;-67
2023/12/19 07:26:23;;;;;;;9.15;5.35;;;8.40;99.90;;;;;;5082102;28;20036;-66
2023/12/19 07:28:52;;;;;;;9.75;5.68;;;8.20;99.90;;;;;;5115127;27;20324;-66
2023/12/19 07:31:25;;;;;;;7.97;4.78;;;8.20;99.90;;;;;;5082328;28;20044;-66
2023/12/19 07:34:06;;;;;;;9.00;5.20;;;8.20;99.90;;;;;;5068874;28;20043;-66
2023/12/19 07:36:33;;;;;;;9.20;5.30;;;8.30;99.90;;;;;;5083650;27;20139;-66
2023/12/19 07:38:59;;;;;;;8.77;4.68;;;8.20;99.90;;;;;;5115277;27;20072;-66
2023/12/19 07:41:26;;;;;;;7.22;4.65;;;8.30;99.90;;;;;;5083046;27;20522;-66
2023/12/19 07:43:55;;;;;;;7.57;4.47;;;8.70;99.90;;;;;;5080465;28;20043;-66
2023/12/19 07:46:21;;;;;;;8.73;4.80;;;8.30;99.90;;;;;;5080965;28;20071;-66
2023/12/19 07:48:48;;;;;;;7.63;4.47;;;8.30;99.90;;;;;;5079703;28;20052;-66
2023/12/19 07:51:26;;;;;;;6.80;4.18;;;8.30;99.90;;;;;;5087632;28;20051;-65
2023/12/19 07:53:54;;;;;;;7.82;4.50;;;8.30;99.90;;;;;;5083865;27;20115;-66
2023/12/19 07:56:23;;;;;;;8.38;4.35;;;8.30;99.90;;;;;;5081731;28;20078;-66
2023/12/19 07:58:49;;;;;;;7.78;4.53;;;8.50;99.90;;;;;;5081415;28;20774;-66
2023/12/19 08:01:16;;;;;;;7.82;4.68;;;8.30;99.90;;;;;;5085642;28;20047;-66
2023/12/19 08:03:43;;;;;;;7.15;4.07;;;8.30;99.90;;;;;;5083140;28;20076;-67
2023/12/19 08:06:09;;;;;;;8.07;4.75;;;8.30;99.90;;;;;;5085550;28;20055;-66
2023/12/19 08:08:35;;;;;;;6.72;3.65;;;8.30;99.90;;;;;;5106845;27;20083;-66
2023/12/19 08:11:01;;;;;;;7.43;4.20;;;8.40;99.90;;;;;;5116942;27;20366;-65
2023/12/19 08:13:28;;;;;;;6.82;3.80;;;8.30;99.90;;;;;;5091763;28;20051;-67
2023/12/19 08:15:54;;;;;;;9.20;3.85;;;8.30;99.90;;;;;;5085749;28;20999;-65
2023/12/19 08:18:23;;;;;;;7.63;4.30;;;8.30;99.90;;;;;;5077930;28;20074;-66
2023/12/19 08:20:49;;;;;;;7.40;3.78;;;8.30;99.90;;;;;;5069087;28;20162;-66
2023/12/19 08:23:14;;;;;;;6.90;3.92;;;8.60;99.90;;;;;;5105563;27;20118;-66
2023/12/19 08:25:41;;;;;;;7.30;3.90;;;8.30;99.90;;;;;;5101214;27;20456;-66
2023/12/19 08:28:11;;;;;;;8.60;4.80;;;8.30;99.90;;;;;;5097571;28;20112;-66
2023/12/19 08:30:39;;;;;;;7.95;4.95;;;8.40;99.90;;;;;;5089760;28;20421;-68
2023/12/19 08:33:05;;;;;;;8.25;4.97;;;8.40;99.90;;;;;;5090068;28;20146;-69
2023/12/19 08:35:30;;;;;;;9.57;5.57;;;8.30;99.90;;;;;;5075141;28;20594;-68
2023/12/19 08:37:56;;;;;;;9.57;6.05;;;8.60;99.90;;;;;;5094779;28;20065;-68
2023/12/19 08:40:22;;;;;;;10.25;6.10;;;8.40;99.90;;;;;;5078382;28;20070;-68
2023/12/19 08:42:48;;;;;;;10.60;6.68;;;8.40;99.90;;;;;;5094759;28;20566;-68
2023/12/19 08:45:19;;;;;;;10.52;7.30;;;8.40;99.90;;;;;;5096904;28;20504;-69
2023/12/19 08:47:46;;;;;;;11.43;7.65;;;8.40;99.90;;;;;;5099885;28;20131;-69
2023/12/19 08:50:12;;;;;;;13.07;7.63;;;8.40;99.90;;;;;;5123807;27;20092;-68
2023/12/19 08:52:40;;;;;;;14.55;7.40;;;8.40;99.90;;;;;;5090153;28;20036;-69
2023/12/19 08:55:11;;;;;;;12.02;7.75;;;8.50;99.90;;;;;;5100943;28;20056;-69
2023/12/19 08:57:44;;;;;;;13.80;8.48;;;8.40;99.90;;;;;;5104502;28;20047;-68
2023/12/19 09:00:13;;;;;;;12.05;7.80;;;8.50;99.90;;;;;;5095317;28;20051;-69
2023/12/19 09:02:46;;;;;;;12.52;8.20;;;8.40;99.90;;;;;;5097206;28;20621;-69
2023/12/19 09:05:13;;;;;;;12.38;8.15;;;8.50;99.90;;;;;;5134739;27;20054;-69
2023/12/19 09:07:40;;;;;;;11.27;7.97;;;8.50;99.90;;;;;;5104975;28;20051;-66
2023/12/19 09:10:06;;;;;;;13.65;8.43;;;8.50;99.90;;;;;;5102103;27;20055;-65
2023/12/19 09:12:33;;;;;;;11.35;7.38;;;8.50;99.90;;;;;;5091121;28;20040;-66
2023/12/19 09:15:00;;;;;;;13.27;8.02;;;8.90;99.90;;;;;;5097948;28;20115;-68
2023/12/19 09:17:26;;;;;;;12.98;8.18;;;8.60;99.90;;;;;;5105338;28;20055;-65
2023/12/19 09:19:51;;;;;;;12.65;8.00;;;8.90;99.90;;;;;;5097234;28;20044;-66
2023/12/19 09:22:17;;;;;;;11.38;7.32;;;8.80;99.90;;;;;;5118979;27;20676;-66
2023/12/19 09:24:43;;;;;;;11.75;7.47;;;8.60;99.90;;;;;;5080551;28;20051;-66
2023/12/19 09:27:10;;;;;;;10.48;6.85;;;8.60;99.90;;;;;;5105022;28;20047;-66
2023/12/19 09:29:36;;;;;;;10.48;6.78;;;8.60;99.90;;;;;;5102573;28;20051;-66
2023/12/19 09:32:05;;;;;;;11.18;7.20;;;8.60;99.90;;;;;;5083002;28;20408;-66
2023/12/19 09:34:31;;;;;;;13.00;6.38;;;8.70;99.90;;;;;;5080990;28;20120;-66
2023/12/19 09:36:56;;;;;;;9.93;6.05;;;8.70;99.90;;;;;;5131104;27;20082;-66
2023/12/19 09:39:23;;;;;;;10.57;6.82;;;8.70;99.90;;;;;;5135280;27;20079;-65
2023/12/19 09:41:49;;;;;;;9.52;5.88;;;8.70;99.90;;;;;;5100702;28;20063;-66
2023/12/19 09:44:16;;;;;;;8.75;5.60;;;8.70;99.90;;;;;;5102334;28;20111;-66
2023/12/19 09:46:42;;;;;;;8.95;5.65;;;8.70;99.90;;;;;;5103123;28;20043;-66
2023/12/19 09:49:10;;;;;;;10.82;6.00;;;9.10;99.90;;;;;;5095264;28;20168;-67
2023/12/19 09:51:42;;;;;;;8.70;5.55;;;8.80;99.90;;;;;;5100376;28;20078;-65
2023/12/19 09:54:08;;;;;;;11.32;6.82;;;8.70;99.90;;;;;;5103755;28;20044;-66
2023/12/19 09:56:35;;;;;;;9.38;5.82;;;8.80;99.90;;;;;;5085838;28;20055;-66
2023/12/19 09:59:03;;;;;;;9.88;5.50;;;8.80;99.90;;;;;;5077430;28;20050;-66
2023/12/19 10:01:29;;;;;;;8.95;5.95;;;8.80;99.90;;;;;;5103607;27;20150;-65
2023/12/19 10:03:55;;;;;;;9.32;5.80;;;8.80;99.90;;;;;;5098737;28;20035;-66
2023/12/19 10:06:25;;;;;;;9.25;5.90;;;8.80;99.90;;;;;;5095921;28;20043;-66
2023/12/19 10:08:52;;;;;;;10.10;5.95;;;8.80;99.90;;;;;;5074096;28;20032;-66
2023/12/19 10:11:18;;;;;;;10.30;6.10;;;8.80;99.90;;;;;;5104407;27;20119;-66
2023/12/19 10:13:48;;;;;;;11.75;7.00;;;8.80;99.90;;;;;;5102900;27;20043;-66
2023/12/19 10:16:17;;;;;;;11.10;6.65;;;8.90;99.90;;;;;;5102763;28;20496;-66
2023/12/19 10:18:53;;;;;;;9.40;6.22;;;8.80;99.90;;;;;;5102315;28;20483;-66
2023/12/19 10:21:21;;;;;;;12.13;6.10;;;8.80;99.90;;;;;;5102479;27;20571;-66
2023/12/19 10:23:47;;;;;;;12.07;7.00;;;8.90;99.90;;;;;;5104341;28;20040;-67
2023/12/19 10:26:13;;;;;;;10.02;6.30;;;8.90;99.90;;;;;;5104447;28;20043;-66
2023/12/19 10:28:40;;;;;;;11.40;7.28;;;8.90;99.90;;;;;;5103983;28;20140;-66
2023/12/19 10:31:06;;;;;;;11.88;6.50;;;8.90;99.90;;;;;;5070353;28;20047;-66
2023/12/19 10:33:54;;;;;;;10.20;6.50;;;8.90;99.90;;;;;;5087239;28;20377;-66
2023/12/19 10:36:24;;;;;;;10.93;7.00;;;9.00;99.90;;;;;;5105097;28;20066;-66
2023/12/19 10:38:51;;;;;;;14.23;8.15;;;9.00;99.90;;;;;;5103784;28;20043;-66
2023/12/19 10:41:26;;;;;;;10.25;6.95;;;9.00;99.90;;;;;;5104183;28;20078;-67
2023/12/19 10:43:57;;;;;;;11.07;7.07;;;9.00;99.90;;;;;;5104049;28;20044;-67
2023/12/19 10:46:31;;;;;;;11.75;7.70;;;9.00;99.90;;;;;;5105061;28;20381;-66
2023/12/19 10:49:02;;;;;;;12.48;8.35;;;9.00;99.90;;;;;;5087719;28;20044;-66
2023/12/19 10:51:37;;;;;;;12.90;8.95;;;9.00;99.90;;;;;;5087633;28;20051;-66
2023/12/19 10:54:08;;;;;;;12.38;8.13;;;9.10;99.90;;;;;;5103418;28;20825;-66
2023/12/19 10:56:45;;;;;;;13.57;8.63;;;9.10;99.90;;;;;;5104462;28;20173;-69
2023/12/19 10:59:17;;;;;;;13.63;9.18;;;9.10;99.90;;;;;;5104923;28;20119;-69
2023/12/19 11:01:45;;;;;;;15.40;9.70;;;9.10;99.90;;;;;;5123179;27;20064;-69
2023/12/19 11:04:18;;;;;;;14.00;9.18;;;9.10;99.90;;;;;;5103546;28;20554;-70
2023/12/19 11:06:49;;;;;;;13.80;9.70;;;9.10;99.90;;;;;;5104175;28;20389;-69
2023/12/19 11:09:18;;;;;;;14.77;9.52;;;9.10;99.90;;;;;;5102667;28;20845;-69
2023/12/19 11:11:44;;;;;;;13.65;9.68;;;9.20;99.90;;;;;;5102619;28;20080;-70
2023/12/19 11:14:10;;;;;;;12.48;9.07;;;9.30;99.90;;;;;;5104166;28;20044;-69
2023/12/19 11:16:38;;;;;;;11.88;8.95;;;9.20;99.90;;;;;;5104968;28;20043;-69
2023/12/19 11:19:29;;;;;;;14.50;9.02;;;9.20;99.90;;;;;;5103448;28;20051;-70
2023/12/19 11:22:03;;;;;;;15.23;9.02;;;9.30;99.90;;;;;;5135665;27;20073;-70
2023/12/19 11:24:45;;;;;;;12.98;8.63;;;9.20;99.90;;;;;;5103341;28;20055;-70
2023/12/19 11:27:19;;;;;;;15.10;8.23;;;9.30;99.90;;;;;;5102582;28;20093;-70
2023/12/19 11:29:45;;;;;;;12.43;8.55;;;9.30;99.90;;;;;;5102703;27;20047;-71
2023/12/19 11:32:26;;;;;;;13.68;8.70;;;9.70;99.90;;;;;;5132384;27;20123;-70
2023/12/19 11:35:13;;;;;;;13.63;8.60;;;9.30;99.90;;;;;;5103214;28;22190;-71
2023/12/19 11:37:46;;;;;;;11.80;8.20;;;9.30;99.90;;;;;;5100398;28;20055;-70
2023/12/19 11:40:49;;;;;;;11.02;7.95;;;9.30;99.90;;;;;;5102707;28;20051;-70
2023/12/19 11:43:27;;;;;;;11.10;7.57;;;9.30;99.90;;;;;;5103799;28;20051;-70
2023/12/19 11:45:53;;;;;;;10.20;7.13;;;9.40;99.90;;;;;;5086499;28;20075;-68
2023/12/19 11:48:40;;;;;;;10.32;6.97;;;9.30;99.90;;;;;;5102746;28;20050;-69
2023/12/19 11:51:08;;;;;;;11.32;7.40;;;9.30;99.90;;;;;;5102449;28;20054;-68
2023/12/19 11:53:36;;;;;;;10.65;6.85;;;9.30;99.90;;;;;;5103058;28;20048;-69
2023/12/19 11:56:10;;;;;;;9.02;6.68;;;9.40;99.90;;;;;;5101611;28;20074;-69
2023/12/19 11:58:47;;;;;;;10.73;6.72;;;9.40;99.90;;;;;;5085609;28;20135;-69
2023/12/19 12:01:14;;;;;;;10.35;6.68;;;9.40;99.90;;;;;;5102564;28;20051;-68
2023/12/19 12:03:40;;;;;;;10.70;7.00;;;9.40;99.90;;;;;;5104723;27;20035;-68
2023/12/19 12:06:08;;;;;;;9.27;6.82;;;9.40;99.90;;;;;;5102787;28;20043;-69
2023/12/19 12:08:34;;;;;;;9.48;6.40;;;9.40;99.90;;;;;;5097330;27;20043;-65
2023/12/19 12:11:01;;;;;;;10.15;6.53;;;9.40;99.90;;;;;;5102715;28;20039;-65
2023/12/19 12:13:29;;;;;;;11.23;6.22;;;9.40;99.90;;;;;;5089312;28;20120;-65
2023/12/19 12:15:57;;;;;;;8.68;5.97;;;9.40;99.90;;;;;;5058368;28;20192;-66
2023/12/19 12:18:24;;;;;;;9.70;6.00;;;9.40;99.90;;;;;;5093389;28;20583;-66
2023/12/19 12:20:50;;;;;;;9.90;6.20;;;9.40;99.90;;;;;;5131620;27;20051;-66
2023/12/19 12:23:20;;;;;;;9.60;5.43;;;9.40;99.90;;;;;;5101310;28;20071;-67
2023/12/19 12:25:56;;;;;;;9.90;5.70;;;9.40;99.90;;;;;;5081165;28;20083;-66
2023/12/19 12:28:28;;;;;;;8.48;5.13;;;9.40;99.90;;;;;;5082939;28;20407;-66
2023/12/19 12:30:59;;;;;;;10.05;6.07;;;9.40;99.90;;;;;;5099700;28;20062;-66
2023/12/19 12:33:31;;;;;;;12.07;5.97;;;9.70;99.90;;;;;;5080157;28;20411;-66
2023/12/19 12:35:57;;;;;;;8.20;5.28;;;9.40;99.90;;;;;;5094810;28;20051;-66
2023/12/19 12:38:24;;;;;;;10.55;5.90;;;9.40;99.90;;;;;;5089630;28;20052;-66
2023/12/19 12:40:56;;;;;;;12.45;6.00;;;9.40;99.90;;;;;;5097191;28;20040;-67
2023/12/19 12:43:27;;;;;;;8.43;5.60;;;9.40;99.90;;;;;;5096618;28;20576;-66
2023/12/19 12:46:13;;;;;;;9.38;5.88;;;9.40;99.90;;;;;;5084083;28;20047;-66
2023/12/19 12:48:50;;;;;;;10.10;5.82;;;9.40;99.90;;;;;;5092812;28;20067;-66